Time;durP1;ratioP1;P1;durP2;ratioP2;P2;SDS_P1;SDS_P2;PMS_P1;PMS_P2;Temp;Humidity;BMP_temperature;BMP_pressure;BME280_temperature;BME280_humidity;BME280_pressure;Samples;Min_cycle;Max_cycle;Signal;HPM_P1;HPM_P2
2023/08/20 00:00:33;;;;;;;8.48;5.63;;;;;;;17.17;100.00;102074.03;4916259;29;20055;-80
2023/08/20 00:03:04;;;;;;;11.05;6.07;;;;;;;17.15;100.00;102062.88;4915832;29;20036;-79
2023/08/20 00:05:31;;;;;;;9.65;6.45;;;;;;;17.29;100.00;102073.16;4916241;29;20021;-79
2023/08/20 00:07:56;;;;;;;9.38;5.97;;;;;;;17.31;100.00;102073.09;4916118;29;20028;-79
2023/08/20 00:10:21;;;;;;;9.02;5.68;;;;;;;17.37;100.00;102065.63;4916143;29;20083;-79
2023/08/20 00:12:47;;;;;;;11.32;6.55;;;;;;;17.27;100.00;102053.34;4916060;29;20043;-78
2023/08/20 00:15:12;;;;;;;8.07;5.45;;;;;;;17.16;100.00;102047.13;4916094;29;20024;-79
2023/08/20 00:17:39;;;;;;;10.30;5.80;;;;;;;16.98;100.00;102030.16;4919576;29;20070;-80
2023/08/20 00:20:12;;;;;;;9.80;5.20;;;;;;;17.07;100.00;102046.94;4919779;29;20032;-80
2023/08/20 00:22:39;;;;;;;9.70;5.82;;;;;;;17.12;100.00;102061.34;4919844;29;20035;-79
2023/08/20 00:25:05;;;;;;;12.68;5.75;;;;;;;17.07;100.00;102060.81;4919863;29;20028;-79
2023/08/20 00:27:31;;;;;;;10.27;5.93;;;;;;;16.94;100.00;102048.75;4919651;29;20020;-80
2023/08/20 00:29:56;;;;;;;12.85;6.55;;;;;;;16.87;100.00;102043.94;4919493;29;20514;-80
2023/08/20 00:32:22;;;;;;;10.18;6.05;;;;;;;16.79;100.00;102037.59;4919363;29;20032;-79
2023/08/20 00:34:47;;;;;;;10.65;6.47;;;;;;;16.81;100.00;102054.84;4919522;29;20028;-79
2023/08/20 00:37:12;;;;;;;9.77;6.53;;;;;;;16.79;100.00;102053.25;4919466;29;20076;-80
2023/08/20 00:39:38;;;;;;;9.57;6.32;;;;;;;16.46;100.00;102025.09;4919488;29;20111;-80
2023/08/20 00:42:04;;;;;;;9.27;5.75;;;;;;;16.62;100.00;102070.88;4919684;29;20028;-78
2023/08/20 00:44:30;;;;;;;10.68;6.63;;;;;;;16.55;100.00;102061.81;4919091;29;20060;-79
2023/08/20 00:46:56;;;;;;;9.18;6.00;;;;;;;16.58;100.00;102073.78;4902521;29;20059;-79
2023/08/20 00:49:22;;;;;;;9.30;5.82;;;;;;;16.52;100.00;102074.25;4919174;29;20477;-79
2023/08/20 00:51:48;;;;;;;9.20;5.70;;;;;;;16.46;100.00;102048.56;4919444;29;20032;-79
2023/08/20 00:54:13;;;;;;;11.07;6.28;;;;;;;16.64;100.00;102078.59;4919036;29;20541;-79
2023/08/20 00:56:39;;;;;;;10.55;6.07;;;;;;;16.65;100.00;102088.09;4919218;29;20028;-79
2023/08/20 00:59:05;;;;;;;9.23;6.00;;;;;;;16.66;100.00;102091.53;4917833;29;20387;-79
2023/08/20 01:01:31;;;;;;;9.38;5.90;;;;;;;16.75;100.00;102102.22;4919372;29;20031;-79
2023/08/20 01:03:57;;;;;;;9.18;5.78;;;;;;;16.85;100.00;102107.63;4918973;29;20040;-79
2023/08/20 01:06:34;;;;;;;7.60;5.55;;;;;;;16.93;100.00;102107.94;4918957;29;20474;-80
2023/08/20 01:09:41;;;;;;;9.32;5.32;;;;;;;17.04;100.00;102112.41;4919114;29;20087;-80
2023/08/20 01:12:07;;;;;;;10.00;5.72;;;;;;;17.10;100.00;102111.97;4918360;29;20418;-80
2023/08/20 01:14:32;;;;;;;9.77;5.40;;;;;;;17.08;100.00;102101.63;4918931;29;20028;-80
2023/08/20 01:16:57;;;;;;;8.20;5.35;;;;;;;17.12;100.00;102089.22;4918730;29;20028;-79
2023/08/20 01:19:23;;;;;;;11.63;5.25;;;;;;;17.18;100.00;102102.66;4918437;29;20056;-79
2023/08/20 01:21:51;;;;;;;10.95;6.15;;;;;;;17.34;100.00;102125.06;4902108;29;20040;-79
2023/08/20 01:24:34;;;;;;;11.15;6.32;;;;;;;17.37;100.00;102123.06;4918904;29;20036;-78
2023/08/20 01:27:25;;;;;;;12.38;6.82;;;;;;;17.43;100.00;102121.81;4917809;29;20474;-79
2023/08/20 01:29:51;;;;;;;12.18;6.60;;;;;;;17.44;100.00;102123.47;4878782;29;20141;-79
2023/08/20 01:32:17;;;;;;;11.55;6.82;;;;;;;17.44;100.00;102119.09;4878985;29;20099;-79
2023/08/20 01:34:43;;;;;;;10.85;6.95;;;;;;;17.45;100.00;102110.31;4878461;29;20049;-79
2023/08/20 01:37:08;;;;;;;10.65;6.80;;;;;;;17.30;100.00;102095.72;4878719;29;20029;-80
2023/08/20 01:39:33;;;;;;;13.65;6.50;;;;;;;17.20;100.00;102084.25;4878724;29;20037;-78
2023/08/20 01:41:59;;;;;;;11.57;6.82;;;;;;;17.27;100.00;102103.78;4878611;29;20041;-79
2023/08/20 01:44:24;;;;;;;10.55;6.32;;;;;;;17.26;100.00;102114.34;4878540;29;20056;-79
2023/08/20 01:46:49;;;;;;;12.25;6.53;;;;;;;17.19;100.00;102116.53;4878812;29;20060;-78
2023/08/20 01:49:15;;;;;;;11.68;6.90;;;;;;;17.08;100.00;102095.56;4878511;29;20145;-78
2023/08/20 01:51:40;;;;;;;11.27;6.72;;;;;;;16.97;100.00;102078.06;4863005;29;20029;-78
2023/08/20 01:54:06;;;;;;;9.27;6.18;;;;;;;17.29;100.00;102121.94;4878260;29;20045;-79
2023/08/20 01:56:31;;;;;;;9.65;6.53;;;;;;;17.31;100.00;102135.75;4878506;29;20025;-79
2023/08/20 01:58:57;;;;;;;11.07;7.03;;;;;;;17.17;100.00;102114.03;4878482;29;20058;-79
2023/08/20 02:01:22;;;;;;;10.25;6.70;;;;;;;17.10;100.00;102110.19;4878509;29;20411;-79
2023/08/20 02:03:47;;;;;;;10.40;6.88;;;;;;;17.31;100.00;102146.19;4878366;29;20049;-79
2023/08/20 02:06:12;;;;;;;10.68;6.53;;;;;;;17.31;100.00;102141.81;4888806;29;20043;-79
2023/08/20 02:08:38;;;;;;;12.30;6.80;;;;;;;17.33;100.00;102157.34;4917983;29;20194;-79
2023/08/20 02:11:04;;;;;;;12.80;7.03;;;;;;;17.26;100.00;102143.88;4917974;29;20111;-78
2023/08/20 02:13:31;;;;;;;10.25;6.60;;;;;;;17.34;100.00;102156.41;4917764;29;20070;-79
2023/08/20 02:16:04;;;;;;;11.02;6.28;;;;;;;17.34;100.00;102148.56;4917530;29;20509;-78
2023/08/20 02:18:30;;;;;;;9.48;6.78;;;;;;;17.30;100.00;102145.31;4917438;29;20079;-78
2023/08/20 02:20:56;;;;;;;9.90;6.47;;;;;;;17.33;100.00;102147.75;4917650;29;20079;-78
2023/08/20 02:23:22;;;;;;;10.82;6.25;;;;;;;17.23;100.00;102136.28;4917527;29;20475;-78
2023/08/20 02:25:48;;;;;;;12.55;6.93;;;;;;;17.20;100.00;102145.13;4917807;29;20057;-79
2023/08/20 02:28:13;;;;;;;13.52;6.68;;;;;;;17.07;100.00;102138.28;4917536;29;20135;-79
2023/08/20 02:30:41;;;;;;;10.57;6.28;;;;;;;17.03;100.00;102147.28;4917307;29;20118;-78
2023/08/20 02:33:06;;;;;;;11.52;6.63;;;;;;;16.87;100.00;102135.28;4917525;29;20039;-79
2023/08/20 02:35:32;;;;;;;12.02;6.47;;;;;;;16.85;100.00;102147.59;4917258;29;20386;-78
2023/08/20 02:37:57;;;;;;;10.63;6.22;;;;;;;16.72;100.00;102144.16;4917462;29;20031;-78
2023/08/20 02:40:22;;;;;;;11.55;6.35;;;;;;;16.71;100.00;102149.47;4917191;29;20056;-78
2023/08/20 02:42:48;;;;;;;8.18;6.10;;;;;;;16.62;100.00;102143.91;4917266;29;20098;-79
2023/08/20 02:45:13;;;;;;;13.32;6.70;;;;;;;16.57;100.00;102142.53;4917027;29;20139;-78
2023/08/20 02:47:38;;;;;;;9.38;5.95;;;;;;;16.53;100.00;102148.91;4916970;29;20546;-78
2023/08/20 02:50:04;;;;;;;9.70;6.10;;;;;;;16.41;100.00;102123.63;4916770;29;20032;-78
2023/08/20 02:52:29;;;;;;;10.60;6.25;;;;;;;16.43;100.00;102142.66;4899981;29;20045;-78
2023/08/20 02:54:55;;;;;;;8.50;5.80;;;;;;;16.28;100.00;102131.44;4916993;29;20064;-79
2023/08/20 02:57:21;;;;;;;10.25;6.18;;;;;;;16.18;100.00;102112.16;4917212;29;20051;-79
2023/08/20 02:59:46;;;;;;;11.98;6.97;;;;;;;16.12;100.00;102126.41;4916921;29;20386;-79
2023/08/20 03:02:12;;;;;;;11.85;6.20;;;;;;;16.12;100.00;102134.22;4916443;29;20034;-79
2023/08/20 03:04:37;;;;;;;11.43;6.55;;;;;;;15.95;100.00;102108.44;4916587;29;20066;-79
2023/08/20 03:07:02;;;;;;;10.75;6.97;;;;;;;16.04;100.00;102132.13;4916885;29;20075;-79
2023/08/20 03:09:28;;;;;;;10.05;7.20;;;;;;;16.01;100.00;102134.09;4916957;29;20103;-79
2023/08/20 03:11:53;;;;;;;13.27;6.90;;;;;;;15.81;100.00;102111.09;4916967;29;20032;-80
2023/08/20 03:14:18;;;;;;;11.73;6.68;;;;;;;15.88;100.00;102125.41;4916831;29;20131;-79
2023/08/20 03:16:44;;;;;;;13.77;6.88;;;;;;;15.84;100.00;102123.94;4916756;29;20040;-79
2023/08/20 03:19:09;;;;;;;10.38;6.60;;;;;;;15.81;100.00;102129.34;4916295;29;20541;-79
2023/08/20 03:21:34;;;;;;;10.57;6.50;;;;;;;15.70;100.00;102123.03;4916762;29;20454;-79
2023/08/20 03:24:00;;;;;;;7.80;5.88;;;;;;;15.67;100.00;102118.03;4916709;29;20394;-79
2023/08/20 03:26:25;;;;;;;10.15;6.20;;;;;;;15.64;100.00;102126.06;4916701;29;20397;-79
2023/08/20 03:28:51;;;;;;;11.82;6.35;;;;;;;15.58;100.00;102120.38;4916778;29;20115;-80
2023/08/20 03:31:16;;;;;;;10.40;6.50;;;;;;;15.44;100.00;102111.66;4916551;29;20529;-79
2023/08/20 03:33:41;;;;;;;10.23;7.15;;;;;;;15.35;100.00;102104.44;4916452;29;20131;-79
2023/08/20 03:36:06;;;;;;;10.30;6.65;;;;;;;15.25;100.00;102097.31;4916200;29;20060;-79
2023/08/20 03:38:32;;;;;;;12.32;6.82;;;;;;;15.17;100.00;102088.19;4916630;29;20035;-80
2023/08/20 03:40:57;;;;;;;10.45;6.80;;;;;;;15.33;100.00;102118.44;4916290;29;20091;-79
2023/08/20 03:43:22;;;;;;;10.70;6.53;;;;;;;15.30;100.00;102121.25;4916452;29;20055;-79
2023/08/20 03:45:53;;;;;;;9.50;7.07;;;;;;;15.21;100.00;102117.44;4916063;29;20056;-79
2023/08/20 03:48:20;;;;;;;11.93;7.60;;;;;;;15.22;100.00;102126.94;4916441;29;20024;-79
2023/08/20 03:50:45;;;;;;;10.68;6.40;;;;;;;15.18;100.00;102134.09;4918617;29;20091;-79
2023/08/20 03:53:10;;;;;;;12.10;7.05;;;;;;;15.10;100.00;102125.09;4922566;29;20036;-80
2023/08/20 03:55:36;;;;;;;9.93;6.97;;;;;;;15.09;100.00;102126.03;4922558;29;20107;-79
2023/08/20 03:58:01;;;;;;;10.75;7.88;;;;;;;14.99;100.00;102123.16;4922686;29;20036;-79
2023/08/20 04:00:26;;;;;;;12.07;7.68;;;;;;;14.95;100.00;102126.88;4922471;29;20167;-79
2023/08/20 04:02:52;;;;;;;12.60;7.35;;;;;;;14.92;100.00;102119.22;4922571;29;20496;-80
2023/08/20 04:05:17;;;;;;;11.38;8.02;;;;;;;15.00;100.00;102142.19;4922181;29;20036;-79
2023/08/20 04:07:42;;;;;;;12.32;8.32;;;;;;;14.91;100.00;102133.16;4922454;29;20032;-79
2023/08/20 04:10:09;;;;;;;9.90;7.07;;;;;;;14.97;100.00;102148.41;4922395;29;20039;-79
2023/08/20 04:12:34;;;;;;;11.63;7.63;;;;;;;14.71;100.00;102116.16;4922388;29;20028;-80
2023/08/20 04:14:59;;;;;;;12.32;7.30;;;;;;;14.86;100.00;102148.22;4922237;29;20032;-81
2023/08/20 04:17:25;;;;;;;11.55;7.40;;;;;;;14.89;100.00;102158.44;4922522;29;20032;-79
2023/08/20 04:19:50;;;;;;;8.38;7.03;;;;;;;14.86;100.00;102150.84;4922379;29;20521;-79
2023/08/20 04:22:15;;;;;;;12.18;7.90;;;;;;;14.50;100.00;102105.28;4921973;29;20055;-80
2023/08/20 04:24:40;;;;;;;10.32;7.28;;;;;;;14.67;100.00;102139.84;4922384;29;20040;-79
2023/08/20 04:27:06;;;;;;;8.57;6.72;;;;;;;14.80;100.00;102161.59;4922281;29;20024;-79
2023/08/20 04:29:31;;;;;;;11.15;7.60;;;;;;;14.77;100.00;102160.03;4922161;29;20038;-79
2023/08/20 04:31:56;;;;;;;13.13;7.32;;;;;;;14.75;100.00;102159.28;4922227;29;20106;-80
2023/08/20 04:34:22;;;;;;;10.68;6.70;;;;;;;14.61;100.00;102131.47;4922296;29;20068;-79
2023/08/20 04:36:47;;;;;;;10.30;6.35;;;;;;;14.77;100.00;102160.03;4921944;29;20024;-79
2023/08/20 04:39:12;;;;;;;9.82;6.93;;;;;;;14.77;100.00;102165.22;4922113;29;20104;-80
2023/08/20 04:41:38;;;;;;;13.65;7.15;;;;;;;14.74;100.00;102146.34;4922222;29;20028;-79
2023/08/20 04:44:03;;;;;;;10.43;7.20;;;;;;;14.72;100.00;102149.03;4921933;29;20097;-79
2023/08/20 04:46:29;;;;;;;14.32;7.97;;;;;;;14.79;100.00;102152.13;4922192;29;20028;-79
2023/08/20 04:48:54;;;;;;;9.93;7.35;;;;;;;14.69;100.00;102138.81;4922325;29;20127;-79
2023/08/20 04:51:19;;;;;;;14.88;8.00;;;;;;;14.81;100.00;102164.09;4921883;29;20028;-79
2023/08/20 04:53:47;;;;;;;11.05;8.63;;;;;;;14.85;100.00;102164.78;4921969;29;20032;-79
2023/08/20 04:56:12;;;;;;;11.07;7.50;;;;;;;14.79;100.00;102146.91;4922075;29;20051;-79
2023/08/20 04:58:38;;;;;;;12.13;7.30;;;;;;;14.59;100.00;102115.13;4922193;29;20549;-78
2023/08/20 05:01:05;;;;;;;11.80;7.50;;;;;;;14.89;100.00;102163.66;4921993;29;20032;-79
2023/08/20 05:03:30;;;;;;;10.05;7.72;;;;;;;14.91;100.00;102162.63;4919253;29;20514;-79
2023/08/20 05:05:56;;;;;;;9.23;7.30;;;;;;;14.86;100.00;102153.44;4918943;29;20038;-81
2023/08/20 05:08:21;;;;;;;11.93;8.13;;;;;;;14.96;100.00;102172.75;4918872;29;20021;-79
2023/08/20 05:10:47;;;;;;;9.98;7.93;;;;;;;14.99;100.00;102176.94;4918673;29;20027;-79
2023/08/20 05:13:12;;;;;;;14.13;8.30;;;;;;;14.90;100.00;102157.50;4918763;29;20036;-79
2023/08/20 05:15:37;;;;;;;9.65;7.20;;;;;;;15.05;100.00;102182.63;4918843;29;20088;-79
2023/08/20 05:18:03;;;;;;;11.52;7.90;;;;;;;14.98;100.00;102167.47;4918808;29;20181;-79
2023/08/20 05:20:28;;;;;;;9.85;7.53;;;;;;;15.15;100.00;102181.13;4917517;29;20119;-79
2023/08/20 05:22:53;;;;;;;11.35;7.35;;;;;;;15.19;100.00;102185.22;4918641;29;20096;-78
2023/08/20 05:25:19;;;;;;;11.55;7.30;;;;;;;15.02;100.00;102159.38;4918514;29;20047;-78
2023/08/20 05:27:44;;;;;;;10.07;6.75;;;;;;;15.27;100.00;102192.56;4918782;29;20417;-78
2023/08/20 05:30:10;;;;;;;10.85;7.53;;;;;;;15.34;100.00;102196.47;4901771;29;20024;-78
2023/08/20 05:32:35;;;;;;;10.05;7.72;;;;;;;15.33;100.00;102189.56;4918587;29;20051;-77
2023/08/20 05:35:03;;;;;;;9.95;7.10;;;;;;;15.69;100.00;102181.28;4918421;29;20059;-84
2023/08/20 05:37:29;;;;;;;9.63;6.38;;;;;;;16.22;100.00;102200.47;4918370;29;20390;-82
2023/08/20 05:39:54;;;;;;;9.93;7.20;;;;;;;16.25;100.00;102170.75;4918343;29;20047;-82
2023/08/20 05:42:20;;;;;;;11.35;7.60;;;;;;;16.38;100.00;102152.53;4918381;29;20114;-82
2023/08/20 05:44:45;;;;;;;10.32;6.88;;;;;;;16.81;100.00;102190.50;4918272;29;20052;-84
2023/08/20 05:47:11;;;;;;;9.30;6.47;;;;;;;16.88;100.00;102170.84;4918288;29;20035;-82
2023/08/20 05:49:36;;;;;;;10.10;6.20;;;;;;;17.19;100.00;102200.91;4918267;29;20032;-82
2023/08/20 05:52:02;;;;;;;8.43;5.63;;;;;;;17.30;100.00;102189.72;4918079;29;20095;-82
2023/08/20 05:54:27;;;;;;;9.07;5.95;;;;;;;17.54;100.00;102191.56;4918097;29;20038;-82
2023/08/20 05:56:53;;;;;;;7.95;5.60;;;;;;;18.38;100.00;102202.00;4918187;29;20043;-83
2023/08/20 05:59:18;;;;;;;8.48;4.90;;;;;;;19.62;100.00;102179.41;4918278;29;20024;-83
2023/08/20 06:01:44;;;;;;;7.70;4.05;;;;;;;21.10;100.00;102212.56;4918221;29;20047;-82
2023/08/20 06:04:09;;;;;;;7.18;4.00;;;;;;;21.79;91.69;102166.31;4918084;29;20486;-83
2023/08/20 06:06:35;;;;;;;6.90;4.40;;;;;;;22.68;86.20;102177.47;4917896;29;20398;-83
2023/08/20 06:09:00;;;;;;;6.05;3.58;;;;;;;23.72;81.74;102210.63;4917777;29;20051;-84
2023/08/20 06:11:25;;;;;;;5.72;3.08;;;;;;;24.05;78.14;102217.06;4917883;29;20088;-82
2023/08/20 06:13:51;;;;;;;7.32;3.40;;;;;;;24.47;76.13;102200.59;4917173;29;20036;-83
2023/08/20 06:16:16;;;;;;;7.05;2.92;;;;;;;25.38;72.29;102201.78;4917992;29;20032;-83
2023/08/20 06:18:42;;;;;;;6.38;2.80;;;;;;;25.93;69.22;102211.84;4917929;29;20051;-83
2023/08/20 06:21:07;;;;;;;4.53;1.92;;;;;;;26.43;66.14;102204.75;4916624;29;20102;-84
2023/08/20 06:23:32;;;;;;;5.45;2.33;;;;;;;26.89;64.04;102203.16;4917949;29;20127;-83
2023/08/20 06:25:58;;;;;;;4.88;2.70;;;;;;;27.13;61.34;102204.94;4917319;29;20453;-83
2023/08/20 06:28:23;;;;;;;6.95;2.58;;;;;;;27.15;59.91;102161.34;4917530;29;20087;-85
2023/08/20 06:30:49;;;;;;;6.80;2.67;;;;;;;27.58;57.22;102206.03;4917610;29;20028;-83
2023/08/20 06:33:14;;;;;;;10.00;2.95;;;;;;;27.63;56.78;102204.53;4917327;29;20101;-83
2023/08/20 06:35:41;;;;;;;7.22;2.40;;;;;;;27.97;56.59;102208.63;4930252;29;20064;-85
2023/08/20 06:38:07;;;;;;;6.13;2.85;;;;;;;28.09;53.52;102185.94;4917156;29;20054;-85
2023/08/20 06:40:32;;;;;;;10.13;4.00;;;;;;;28.28;54.00;102184.66;4917339;29;20487;-82
2023/08/20 06:42:58;;;;;;;8.20;2.97;;;;;;;28.83;52.26;102204.69;4919087;29;20382;-84
2023/08/20 06:45:23;;;;;;;9.23;3.20;;;;;;;28.93;51.60;102199.94;4933372;29;20131;-84
2023/08/20 06:47:48;;;;;;;11.35;3.42;;;;;;;28.39;51.86;102175.41;4936139;29;20056;-85
2023/08/20 06:50:14;;;;;;;8.25;3.75;;;;;;;28.34;51.42;102159.19;4935903;29;20028;-86
2023/08/20 06:52:39;;;;;;;10.52;3.38;;;;;;;29.00;49.75;102197.34;4935574;29;20028;-82
2023/08/20 06:55:05;;;;;;;10.48;3.83;;;;;;;29.30;49.85;102195.47;4935802;29;20066;-83
2023/08/20 06:57:30;;;;;;;8.80;3.05;;;;;;;29.58;47.58;102198.28;4935739;29;20028;-82
2023/08/20 06:59:55;;;;;;;7.13;2.70;;;;;;;29.87;46.30;102206.13;4936024;29;20028;-85
2023/08/20 07:02:21;;;;;;;6.78;2.78;;;;;;;30.12;46.43;102211.13;4935944;29;20492;-83
2023/08/20 07:04:46;;;;;;;6.38;2.60;;;;;;;30.22;45.44;102159.13;4935692;29;20501;-81
2023/08/20 07:07:12;;;;;;;7.88;2.78;;;;;;;30.15;44.95;102131.63;4935708;29;20020;-82
2023/08/20 07:09:39;;;;;;;8.18;2.90;;;;;;;30.68;44.56;102211.13;4934278;29;20038;-80
2023/08/20 07:12:04;;;;;;;7.47;2.80;;;;;;;30.06;43.72;102131.91;4935585;29;20031;-83
2023/08/20 07:14:30;;;;;;;8.73;3.10;;;;;;;30.77;42.02;102217.94;4935494;29;20392;-80
2023/08/20 07:16:55;;;;;;;7.40;2.65;;;;;;;30.86;44.18;102214.09;4935627;29;20027;-80
2023/08/20 07:19:20;;;;;;;7.05;3.30;;;;;;;29.77;43.42;102200.31;4935716;29;20035;-82
2023/08/20 07:21:46;;;;;;;7.97;2.97;;;;;;;28.17;49.39;102215.09;4935429;29;20027;-81
2023/08/20 07:24:11;;;;;;;8.27;3.33;;;;;;;26.24;52.83;102169.63;4935318;29;20024;-80
2023/08/20 07:26:37;;;;;;;7.85;2.88;;;;;;;24.63;57.09;102131.22;4934625;29;20115;-81
2023/08/20 07:29:02;;;;;;;7.85;2.55;;;;;;;24.20;61.19;102194.44;4935361;29;20496;-81
2023/08/20 07:31:32;;;;;;;6.32;3.08;;;;;;;23.76;65.39;102219.91;4935418;29;20055;-80
2023/08/20 07:34:00;;;;;;;6.35;2.75;;;;;;;23.27;66.13;102221.94;4935268;29;20035;-80
2023/08/20 07:36:26;;;;;;;7.93;2.67;;;;;;;22.89;69.60;102217.66;4935700;29;20032;-81
2023/08/20 07:38:53;;;;;;;8.63;2.95;;;;;;;22.50;71.63;102194.00;4935352;29;20478;-82
2023/08/20 07:41:19;;;;;;;7.57;3.08;;;;;;;22.35;72.63;102223.56;4935416;29;20024;-81
2023/08/20 07:43:46;;;;;;;7.95;3.22;;;;;;;22.16;76.00;102230.47;4934980;29;20051;-82
2023/08/20 07:46:11;;;;;;;7.05;2.70;;;;;;;21.96;74.37;102198.03;4935400;29;20049;-84
2023/08/20 07:48:37;;;;;;;7.55;3.58;;;;;;;21.83;73.56;102208.00;4935345;29;20028;-83
2023/08/20 07:51:03;;;;;;;8.27;3.03;;;;;;;21.75;75.17;102207.84;4935313;29;20028;-82
2023/08/20 07:53:29;;;;;;;7.10;2.70;;;;;;;21.86;78.38;102236.66;4935220;29;20027;-81
2023/08/20 07:55:55;;;;;;;6.95;2.42;;;;;;;21.84;77.02;102233.31;4935192;29;20028;-81
2023/08/20 07:58:20;;;;;;;7.90;2.65;;;;;;;21.84;78.15;102240.38;4935225;29;20023;-82
2023/08/20 08:00:45;;;;;;;8.77;2.83;;;;;;;21.74;78.02;102227.22;4935164;29;20442;-80
2023/08/20 08:03:11;;;;;;;5.68;2.55;;;;;;;21.81;78.76;102240.63;4935267;29;20074;-82
2023/08/20 08:05:37;;;;;;;9.27;2.90;;;;;;;21.79;78.53;102232.06;4935167;29;20047;-81
2023/08/20 08:08:02;;;;;;;7.07;2.88;;;;;;;21.76;78.52;102233.16;4935097;29;20020;-81
2023/08/20 08:10:28;;;;;;;7.32;2.90;;;;;;;21.73;77.58;102233.44;4935080;29;20028;-81
2023/08/20 08:12:54;;;;;;;7.40;2.50;;;;;;;21.56;78.37;102202.53;4935272;29;20470;-82
2023/08/20 08:15:19;;;;;;;8.40;2.95;;;;;;;21.79;79.68;102238.16;4935030;29;20036;-81
2023/08/20 08:17:44;;;;;;;8.82;3.20;;;;;;;21.69;79.56;102232.03;4935150;29;20066;-82
2023/08/20 08:20:10;;;;;;;7.80;3.10;;;;;;;21.78;82.64;102247.00;4935094;29;20094;-81
2023/08/20 08:22:35;;;;;;;7.18;3.25;;;;;;;21.72;79.78;102244.91;4935026;29;20103;-81
2023/08/20 08:25:01;;;;;;;7.38;2.83;;;;;;;21.70;78.52;102249.47;4934931;29;20218;-81
2023/08/20 08:27:26;;;;;;;10.55;3.45;;;;;;;21.02;80.72;102141.47;4935226;29;20470;-81
2023/08/20 08:29:51;;;;;;;9.02;2.80;;;;;;;21.76;79.84;102249.78;4934826;29;20027;-82
2023/08/20 08:32:17;;;;;;;6.82;2.53;;;;;;;21.82;78.52;102245.75;4934923;29;20468;-82
2023/08/20 08:34:42;;;;;;;7.60;3.13;;;;;;;21.83;80.01;102244.81;4934961;29;20050;-81
2023/08/20 08:37:07;;;;;;;7.22;2.45;;;;;;;21.60;75.65;102227.59;4936391;29;20020;-82
2023/08/20 08:39:33;;;;;;;5.68;1.98;;;;;;;21.89;79.07;102248.69;4938350;29;20036;-82
2023/08/20 08:42:04;;;;;;;5.25;1.60;;;;;;;21.69;75.97;102221.53;4933370;29;20474;-82
2023/08/20 08:44:32;;;;;;;5.50;1.80;;;;;;;21.85;74.56;102252.56;4937040;29;20103;-82
2023/08/20 08:46:58;;;;;;;5.03;1.63;;;;;;;21.79;73.03;102227.63;4931516;29;20040;-81
2023/08/20 08:49:24;;;;;;;6.88;1.60;;;;;;;21.88;73.56;102232.06;4938472;29;20023;-81
2023/08/20 08:51:51;;;;;;;4.32;1.40;;;;;;;21.96;73.44;102240.13;4938273;29;20118;-81
2023/08/20 08:54:16;;;;;;;4.07;1.45;;;;;;;21.90;73.95;102224.03;4938259;29;20031;-81
2023/08/20 08:56:42;;;;;;;4.78;1.73;;;;;;;22.15;74.42;102255.13;4937924;29;20031;-81
2023/08/20 08:59:07;;;;;;;4.75;1.67;;;;;;;22.22;75.60;102258.03;4938196;29;20071;-80
2023/08/20 09:01:36;;;;;;;4.45;1.42;;;;;;;22.20;74.51;102249.44;4937956;29;20111;-81
2023/08/20 09:04:02;;;;;;;4.28;1.38;;;;;;;22.05;70.99;102220.06;4938222;29;20135;-83
2023/08/20 09:06:45;;;;;;;4.45;1.30;;;;;;;22.07;71.65;102225.22;4938148;29;20171;-87
2023/08/20 09:09:10;;;;;;;4.82;1.40;;;;;;;22.00;72.59;102209.94;4938032;29;20036;-82
2023/08/20 09:11:36;;;;;;;7.47;1.48;;;;;;;22.14;71.16;102234.22;4937699;29;20350;-80
2023/08/20 09:14:01;;;;;;;5.25;1.88;;;;;;;22.30;68.69;102256.38;4937565;29;20028;-82
2023/08/20 09:16:29;;;;;;;6.00;1.30;;;;;;;22.07;72.47;102206.78;4938193;29;20042;-81
2023/08/20 09:18:58;;;;;;;4.85;1.35;;;;;;;22.46;72.36;102252.34;4936286;29;20046;-83
2023/08/20 09:21:29;;;;;;;6.50;1.40;;;;;;;22.63;70.19;102264.00;4937655;29;20027;-82
2023/08/20 09:23:56;;;;;;;4.00;0.85;;;;;;;22.53;67.48;102248.19;4937687;29;20162;-83
2023/08/20 09:26:22;;;;;;;3.75;0.93;;;;;;;22.59;65.58;102232.66;4936052;29;20044;-81
2023/08/20 09:28:47;;;;;;;3.15;0.90;;;;;;;22.72;62.49;102252.63;4937703;29;20110;-81
2023/08/20 09:31:14;;;;;;;3.03;1.00;;;;;;;22.77;65.96;102251.19;4937495;29;20398;-81
2023/08/20 09:33:53;;;;;;;2.85;0.80;;;;;;;22.49;65.40;102200.25;4937488;29;20454;-82
2023/08/20 09:36:18;;;;;;;3.85;1.20;;;;;;;22.67;66.70;102224.06;4937543;29;20027;-82
2023/08/20 09:38:44;;;;;;;2.97;1.10;;;;;;;23.02;67.17;102268.25;4937410;29;20367;-82
2023/08/20 09:41:09;;;;;;;3.88;1.15;;;;;;;22.93;66.00;102237.47;4937308;29;20404;-84
2023/08/20 09:43:38;;;;;;;2.28;0.85;;;;;;;23.02;63.01;102251.59;4937221;29;20115;-82
2023/08/20 09:46:05;;;;;;;3.40;0.90;;;;;;;23.28;67.70;102270.22;4937180;29;20036;-81
2023/08/20 09:48:37;;;;;;;2.28;0.90;;;;;;;23.38;64.45;102271.00;4936528;29;20079;-79
2023/08/20 09:51:10;;;;;;;5.22;0.80;;;;;;;23.36;62.88;102272.97;4937438;29;20023;-79
2023/08/20 09:53:44;;;;;;;2.10;0.70;;;;;;;23.36;60.02;102260.63;4936838;29;20025;-79
2023/08/20 09:56:14;;;;;;;3.55;0.60;;;;;;;23.41;61.83;102260.19;4920112;29;20028;-77
2023/08/20 09:58:40;;;;;;;3.05;1.00;;;;;;;23.41;61.81;102239.94;4918922;29;20095;-78
2023/08/20 10:01:07;;;;;;;3.97;0.63;;;;;;;23.60;60.73;102268.03;4918113;29;20426;-79
2023/08/20 10:03:32;;;;;;;2.80;0.60;;;;;;;23.59;60.33;102255.81;4918027;29;20032;-81
2023/08/20 10:06:00;;;;;;;3.08;0.75;;;;;;;23.53;61.60;102227.38;4917878;29;20047;-78
2023/08/20 10:08:29;;;;;;;1.83;0.60;;;;;;;23.78;59.80;102268.06;4916686;29;20498;-80
2023/08/20 10:10:54;;;;;;;2.70;0.77;;;;;;;23.74;57.50;102264.06;4917404;29;20431;-80
2023/08/20 10:13:19;;;;;;;1.88;0.47;;;;;;;23.42;54.14;102233.69;4917787;29;20031;-79
2023/08/20 10:15:46;;;;;;;1.75;0.63;;;;;;;23.58;63.23;102237.47;4917698;29;20167;-80
2023/08/20 10:18:11;;;;;;;3.42;0.93;;;;;;;23.82;60.18;102258.88;4917833;29;20040;-81
2023/08/20 10:20:39;;;;;;;2.88;0.77;;;;;;;23.82;58.17;102252.78;4917822;29;20020;-82
2023/08/20 10:23:04;;;;;;;4.78;0.80;;;;;;;24.02;62.17;102262.22;4918001;29;20090;-80
2023/08/20 10:25:30;;;;;;;3.17;0.90;;;;;;;23.98;56.57;102266.97;4917721;29;20099;-80
2023/08/20 10:28:20;;;;;;;1.95;0.65;;;;;;;23.85;58.79;102255.94;4917678;29;20032;-80
2023/08/20 10:31:06;;;;;;;2.80;0.82;;;;;;;23.82;60.21;102261.53;4917449;29;20032;-81
2023/08/20 10:33:33;;;;;;;2.22;0.75;;;;;;;23.64;60.18;102229.84;4916475;29;20035;-81
2023/08/20 10:36:07;;;;;;;4.50;0.70;;;;;;;23.88;56.35;102262.72;4915846;29;20027;-79
2023/08/20 10:38:36;;;;;;;3.03;0.63;;;;;;;23.85;55.63;102253.31;4917364;29;20035;-81
2023/08/20 10:41:01;;;;;;;1.55;0.63;;;;;;;23.98;55.00;102260.84;4917218;29;20125;-78
2023/08/20 10:43:38;;;;;;;2.67;0.80;;;;;;;24.09;57.24;102267.72;4917077;29;20581;-80
2023/08/20 10:46:08;;;;;;;2.45;0.70;;;;;;;24.15;55.57;102267.97;4917041;29;20067;-80
2023/08/20 10:48:35;;;;;;;1.98;0.68;;;;;;;24.19;55.64;102265.88;4916806;29;20119;-79
2023/08/20 10:51:12;;;;;;;2.00;0.60;;;;;;;24.04;53.41;102268.19;4917358;29;20043;-80
2023/08/20 10:53:39;;;;;;;3.33;0.77;;;;;;;23.99;52.94;102268.66;4916792;29;20032;-79
2023/08/20 10:56:15;;;;;;;1.50;0.60;;;;;;;24.02;54.95;102275.44;4916977;29;20030;-80
2023/08/20 10:58:43;;;;;;;4.05;0.85;;;;;;;23.97;52.98;102269.75;4916644;29;20079;-80
2023/08/20 11:01:21;;;;;;;3.67;0.80;;;;;;;23.99;53.53;102270.44;4916852;29;20028;-80
2023/08/20 11:03:48;;;;;;;3.25;0.60;;;;;;;23.99;51.07;102255.44;4916975;29;20386;-80
2023/08/20 11:06:14;;;;;;;3.83;1.00;;;;;;;24.17;54.52;102267.81;4917046;29;20028;-79
2023/08/20 11:08:41;;;;;;;3.92;0.80;;;;;;;24.08;50.56;102261.63;4916871;29;20038;-81
2023/08/20 11:11:07;;;;;;;4.68;0.90;;;;;;;24.09;51.49;102267.72;4916830;29;20443;-80
2023/08/20 11:13:33;;;;;;;2.15;0.60;;;;;;;23.94;51.56;102235.75;4916564;29;20037;-80